Time;durP1;ratioP1;P1;durP2;ratioP2;P2;SDS_P1;SDS_P2;PMS_P1;PMS_P2;Temp;Humidity;BMP_temperature;BMP_pressure;BME280_temperature;BME280_humidity;BME280_pressure;Samples;Min_cycle;Max_cycle;Signal;HPM_P1;HPM_P2
2024/01/28 00:01:36;;;;;;;9.30;5.50;;;;;;;;;;5045587;28;20101;-58
2024/01/28 00:04:03;;;;;;;9.95;5.88;;;;;;;;;;5046416;28;20041;-54
2024/01/28 00:06:29;;;;;;;9.77;5.78;;;;;;;;;;5046323;28;20055;-54
2024/01/28 00:08:55;;;;;;;10.77;6.72;;;;;;;;;;5044869;28;20024;-60
2024/01/28 00:11:21;;;;;;;9.77;5.80;;;;;;;;;;5045580;28;20491;-59
2024/01/28 00:13:47;;;;;;;9.55;5.65;;;;;;;;;;5045622;28;20048;-60
2024/01/28 00:16:14;;;;;;;9.88;5.88;;;;;;;;;;5045577;28;20025;-58
2024/01/28 00:18:40;;;;;;;10.13;6.00;;;;;;;;;;5045907;28;20024;-57
2024/01/28 00:21:06;;;;;;;10.10;5.97;;;;;;;;;;5045707;28;20033;-59
2024/01/28 00:23:32;;;;;;;10.05;5.90;;;;;;;;;;5044977;28;20182;-59
2024/01/28 00:25:58;;;;;;;11.20;8.40;;;;;;;;;;5043890;28;20029;-58
2024/01/28 00:28:24;;;;;;;9.55;5.60;;;;;;;;;;5045362;28;20040;-58
2024/01/28 00:30:50;;;;;;;9.43;5.57;;;;;;;;;;5043872;28;20033;-58
2024/01/28 00:33:16;;;;;;;9.57;5.70;;;;;;;;;;5044782;28;20033;-59
2024/01/28 00:35:42;;;;;;;9.40;5.57;;;;;;;;;;5045163;28;20152;-55
2024/01/28 00:38:08;;;;;;;9.43;5.57;;;;;;;;;;5045201;28;20374;-59
2024/01/28 00:40:34;;;;;;;9.35;5.50;;;;;;;;;;5044006;28;20083;-60
2024/01/28 00:43:00;;;;;;;9.50;5.60;;;;;;;;;;5044334;28;20028;-56
2024/01/28 00:45:26;;;;;;;9.60;5.65;;;;;;;;;;5045185;28;20064;-60
2024/01/28 00:47:52;;;;;;;9.75;5.80;;;;;;;;;;5045012;28;20036;-58
2024/01/28 00:50:20;;;;;;;9.73;5.72;;;;;;;;;;5045273;28;20068;-57
2024/01/28 00:52:46;;;;;;;9.37;5.50;;;;;;;;;;5044361;28;20090;-57
2024/01/28 00:55:12;;;;;;;9.55;5.68;;;;;;;;;;5045152;28;20653;-60
2024/01/28 00:57:38;;;;;;;9.13;5.43;;;;;;;;;;5045042;28;20147;-56
2024/01/28 01:00:04;;;;;;;9.73;5.80;;;;;;;;;;5044530;28;20044;-58
2024/01/28 01:02:30;;;;;;;9.32;5.53;;;;;;;;;;5043526;28;20032;-59
2024/01/28 01:04:56;;;;;;;9.80;5.80;;;;;;;;;;5047615;28;20406;-60
2024/01/28 01:07:23;;;;;;;9.60;5.70;;;;;;;;;;5046759;28;20032;-59
2024/01/28 01:09:49;;;;;;;9.57;5.63;;;;;;;;;;5047556;28;20414;-55
2024/01/28 01:12:15;;;;;;;9.25;5.47;;;;;;;;;;5046186;28;20120;-57
2024/01/28 01:14:41;;;;;;;9.55;5.68;;;;;;;;;;5047309;28;20494;-59
2024/01/28 01:17:07;;;;;;;9.00;5.35;;;;;;;;;;5048609;28;20017;-54
2024/01/28 01:19:33;;;;;;;9.82;5.82;;;;;;;;;;5048712;28;20094;-59
2024/01/28 01:22:01;;;;;;;9.80;5.80;;;;;;;;;;5048146;28;20029;-59
2024/01/28 01:24:27;;;;;;;9.43;5.57;;;;;;;;;;5048896;28;20022;-58
2024/01/28 01:26:53;;;;;;;9.90;5.85;;;;;;;;;;5048740;28;20021;-59
2024/01/28 01:29:19;;;;;;;9.35;5.50;;;;;;;;;;5048688;28;20413;-58
2024/01/28 01:31:45;;;;;;;9.50;5.60;;;;;;;;;;5047710;28;20031;-58
2024/01/28 01:34:11;;;;;;;9.55;5.63;;;;;;;;;;5048567;28;20372;-59
2024/01/28 01:36:37;;;;;;;9.60;5.70;;;;;;;;;;5048661;28;20079;-59
2024/01/28 01:39:03;;;;;;;9.40;5.50;;;;;;;;;;5048664;28;20229;-60
2024/01/28 01:41:29;;;;;;;9.10;5.43;;;;;;;;;;5047852;28;20474;-60
2024/01/28 01:43:56;;;;;;;9.48;5.57;;;;;;;;;;5048420;28;20060;-58
2024/01/28 01:46:22;;;;;;;9.80;5.90;;;;;;;;;;5048649;28;20364;-58
2024/01/28 01:48:49;;;;;;;9.48;5.60;;;;;;;;;;5048715;28;20422;-58
2024/01/28 01:51:15;;;;;;;9.02;5.32;;;;;;;;;;5047808;28;20028;-57
2024/01/28 01:53:41;;;;;;;9.23;5.47;;;;;;;;;;5048281;28;20466;-59
2024/01/28 01:56:07;;;;;;;8.75;5.22;;;;;;;;;;5048388;28;20060;-59
2024/01/28 01:58:33;;;;;;;9.60;5.68;;;;;;;;;;5048510;28;20021;-59
2024/01/28 02:01:00;;;;;;;9.48;5.60;;;;;;;;;;5046868;28;20036;-59
2024/01/28 02:03:28;;;;;;;9.27;5.50;;;;;;;;;;5047590;28;20096;-60
2024/01/28 02:05:54;;;;;;;;;;;;;;;;;;5048640;28;20029;-60
2024/01/28 02:08:20;;;;;;;9.32;5.50;;;;;;;;;;5047920;28;20663;-58
2024/01/28 02:10:46;;;;;;;9.55;5.60;;;;;;;;;;5047903;28;20043;-59
2024/01/28 02:13:12;;;;;;;9.23;5.43;;;;;;;;;;5047626;28;20557;-60
2024/01/28 02:15:38;;;;;;;9.45;5.57;;;;;;;;;;5048180;28;20399;-59
2024/01/28 02:18:05;;;;;;;9.55;5.68;;;;;;;;;;5049347;28;20109;-58
2024/01/28 02:20:31;;;;;;;9.55;5.65;;;;;;;;;;5051856;28;20108;-59
2024/01/28 02:22:57;;;;;;;8.40;5.03;;;;;;;;;;5051006;28;20037;-59
2024/01/28 02:25:23;;;;;;;9.10;5.38;;;;;;;;;;5051982;28;20074;-58
2024/01/28 02:27:49;;;;;;;9.18;5.43;;;;;;;;;;5050418;28;20029;-60
2024/01/28 02:30:15;;;;;;;9.23;5.45;;;;;;;;;;5051531;28;20021;-58
2024/01/28 02:32:48;;;;;;;9.00;5.32;;;;;;;;;;5050875;28;20045;-59
2024/01/28 02:35:15;;;;;;;9.30;5.50;;;;;;;;;;5051584;28;20028;-57
2024/01/28 02:37:41;;;;;;;9.00;5.30;;;;;;;;;;5051712;28;20432;-59
2024/01/28 02:40:07;;;;;;;9.07;5.40;;;;;;;;;;5051844;28;20033;-59
2024/01/28 02:42:33;;;;;;;9.10;5.40;;;;;;;;;;5050855;28;20032;-60
2024/01/28 02:44:59;;;;;;;8.95;5.32;;;;;;;;;;5051683;28;20028;-59
2024/01/28 02:47:25;;;;;;;9.27;5.45;;;;;;;;;;5051586;28;20059;-59
2024/01/28 02:49:51;;;;;;;8.90;5.30;;;;;;;;;;5051300;28;20021;-59
2024/01/28 02:52:17;;;;;;;9.13;5.40;;;;;;;;;;5050446;28;20032;-61
2024/01/28 02:54:43;;;;;;;9.40;5.50;;;;;;;;;;5051484;28;20021;-60
2024/01/28 02:57:09;;;;;;;9.15;5.43;;;;;;;;;;5051068;28;20598;-59
2024/01/28 02:59:35;;;;;;;9.45;5.60;;;;;;;;;;5051192;28;20021;-58
2024/01/28 03:02:01;;;;;;;9.20;5.50;;;;;;;;;;5050349;28;20024;-58
2024/01/28 03:04:27;;;;;;;9.40;5.57;;;;;;;;;;5049756;28;20021;-59
2024/01/28 03:06:53;;;;;;;9.30;5.50;;;;;;;;;;5050979;28;20021;-60
2024/01/28 03:09:19;;;;;;;9.52;5.60;;;;;;;;;;5050848;28;20027;-59
2024/01/28 03:11:45;;;;;;;9.48;5.60;;;;;;;;;;5050051;28;20367;-58
2024/01/28 03:14:11;;;;;;;9.40;5.60;;;;;;;;;;5049268;28;20032;-57
2024/01/28 03:16:37;;;;;;;9.85;5.80;;;;;;;;;;5050758;28;20017;-58
2024/01/28 03:19:03;;;;;;;9.10;5.40;;;;;;;;;;5050845;28;20079;-58
2024/01/28 03:21:30;;;;;;;9.38;5.55;;;;;;;;;;5049997;28;20064;-57
2024/01/28 03:23:56;;;;;;;9.38;5.60;;;;;;;;;;5050760;28;20071;-59
2024/01/28 03:26:22;;;;;;;8.80;5.25;;;;;;;;;;5050924;28;20064;-59
2024/01/28 03:28:48;;;;;;;9.40;5.57;;;;;;;;;;5050311;28;20100;-60
2024/01/28 03:31:14;;;;;;;9.32;5.53;;;;;;;;;;5050032;28;20146;-60
2024/01/28 03:33:40;;;;;;;10.15;7.07;;;;;;;;;;5050179;28;20041;-59
2024/01/28 03:36:07;;;;;;;9.55;5.65;;;;;;;;;;5050709;28;20033;-58
2024/01/28 03:38:33;;;;;;;9.80;5.70;;;;;;;;;;5050552;28;20017;-57
2024/01/28 03:40:59;;;;;;;9.50;5.60;;;;;;;;;;5050174;28;20098;-59
2024/01/28 03:43:25;;;;;;;9.60;5.70;;;;;;;;;;5049409;28;20441;-59
2024/01/28 03:45:50;;;;;;;9.57;5.65;;;;;;;;;;5050376;28;20029;-59
2024/01/28 03:48:16;;;;;;;9.68;5.70;;;;;;;;;;5050229;28;20644;-58
2024/01/28 03:50:42;;;;;;;9.68;5.75;;;;;;;;;;5049991;28;20041;-57
2024/01/28 03:53:08;;;;;;;9.63;5.70;;;;;;;;;;5049305;28;20033;-59
2024/01/28 03:55:34;;;;;;;9.35;5.53;;;;;;;;;;5050406;28;20021;-57
2024/01/28 03:58:00;;;;;;;9.55;5.63;;;;;;;;;;5050242;28;20086;-57
2024/01/28 04:00:29;;;;;;;9.82;5.80;;;;;;;;;;5050243;28;20112;-60
2024/01/28 04:03:01;;;;;;;9.80;5.80;;;;;;;;;;5049397;28;20032;-59
2024/01/28 04:05:26;;;;;;;9.52;5.63;;;;;;;;;;5049937;28;20021;-55
2024/01/28 04:07:53;;;;;;;9.75;5.72;;;;;;;;;;5049958;28;20031;-58
2024/01/28 04:10:19;;;;;;;9.73;5.75;;;;;;;;;;5049624;28;20144;-59
2024/01/28 04:12:46;;;;;;;9.68;5.70;;;;;;;;;;5049022;28;20748;-59
2024/01/28 04:15:12;;;;;;;9.27;5.50;;;;;;;;;;5049597;28;20071;-59
2024/01/28 04:17:38;;;;;;;9.27;5.50;;;;;;;;;;5049621;28;20029;-59
2024/01/28 04:20:04;;;;;;;9.98;5.90;;;;;;;;;;5049445;28;20029;-59
2024/01/28 04:22:33;;;;;;;9.98;5.88;;;;;;;;;;5048675;28;20483;-61
2024/01/28 04:24:59;;;;;;;10.38;6.13;;;;;;;;;;5049458;28;20083;-59
2024/01/28 04:27:25;;;;;;;10.07;5.97;;;;;;;;;;5049445;28;20029;-56
2024/01/28 04:29:51;;;;;;;10.60;6.25;;;;;;;;;;5049537;28;20063;-57
2024/01/28 04:32:17;;;;;;;11.10;9.52;;;;;;;;;;5048563;28;20549;-58
2024/01/28 04:34:43;;;;;;;10.07;6.00;;;;;;;;;;5049158;28;20092;-58
2024/01/28 04:37:09;;;;;;;10.15;6.00;;;;;;;;;;5049138;28;20542;-60
2024/01/28 04:39:35;;;;;;;10.32;6.10;;;;;;;;;;5049241;28;20060;-59
2024/01/28 04:42:01;;;;;;;10.27;6.07;;;;;;;;;;5047604;28;20053;-59
2024/01/28 04:44:27;;;;;;;10.27;6.07;;;;;;;;;;5049175;28;20028;-58
2024/01/28 04:46:56;;;;;;;9.98;5.90;;;;;;;;;;5049006;28;20063;-59
2024/01/28 04:49:23;;;;;;;17.42;10.02;;;;;;;;;;5048981;28;20661;-60
2024/01/28 04:51:49;;;;;;;9.70;5.78;;;;;;;;;;5047814;28;20494;-59
2024/01/28 04:54:15;;;;;;;9.77;5.78;;;;;;;;;;5048727;28;20040;-59
2024/01/28 04:56:41;;;;;;;9.60;5.70;;;;;;;;;;5048935;28;20395;-58
2024/01/28 04:59:07;;;;;;;10.43;6.07;;;;;;;;;;5049201;28;20074;-57
2024/01/28 05:01:33;;;;;;;9.98;5.90;;;;;;;;;;5048007;28;20101;-58
2024/01/28 05:04:04;;;;;;;9.43;5.60;;;;;;;;;;5048963;28;20083;-57
2024/01/28 05:06:36;;;;;;;9.55;5.63;;;;;;;;;;5049021;28;20509;-56
2024/01/28 05:09:03;;;;;;;9.50;5.60;;;;;;;;;;5048932;28;20079;-57
2024/01/28 05:11:30;;;;;;;9.50;5.65;;;;;;;;;;5048212;28;20032;-58
2024/01/28 05:13:56;;;;;;;9.45;5.60;;;;;;;;;;5049189;28;20134;-61
2024/01/28 05:16:23;;;;;;;9.05;5.38;;;;;;;;;;5047698;28;20500;-57
2024/01/28 05:18:50;;;;;;;9.55;5.60;;;;;;;;;;5048795;28;20021;-57
2024/01/28 05:21:16;;;;;;;9.20;5.45;;;;;;;;;;5046711;28;20052;-58
2024/01/28 05:23:42;;;;;;;9.32;5.50;;;;;;;;;;5048513;28;20071;-60
2024/01/28 05:26:08;;;;;;;9.95;6.03;;;;;;;;;;5048590;28;20087;-59
2024/01/28 05:28:34;;;;;;;9.70;5.72;;;;;;;;;;5048734;28;20025;-60
2024/01/28 05:31:00;;;;;;;9.30;5.50;;;;;;;;;;5048406;28;20035;-60
2024/01/28 05:33:26;;;;;;;9.60;5.70;;;;;;;;;;5047971;28;20029;-58
2024/01/28 05:35:52;;;;;;;9.40;5.50;;;;;;;;;;5048528;28;20017;-59
2024/01/28 05:38:18;;;;;;;9.20;5.40;;;;;;;;;;5048276;28;20505;-60
2024/01/28 05:40:44;;;;;;;20.55;13.48;;;;;;;;;;5048119;28;20069;-59
2024/01/28 05:43:10;;;;;;;9.80;5.80;;;;;;;;;;5047829;28;20032;-58
2024/01/28 05:45:36;;;;;;;10.13;6.47;;;;;;;;;;5048439;28;20040;-59
2024/01/28 05:48:03;;;;;;;9.43;5.53;;;;;;;;;;5048266;28;20096;-58
2024/01/28 05:50:32;;;;;;;10.23;7.18;;;;;;;;;;5048238;28;20075;-58
2024/01/28 05:52:57;;;;;;;8.95;5.38;;;;;;;;;;5050298;28;20033;-59
2024/01/28 05:55:23;;;;;;;9.50;5.60;;;;;;;;;;5052255;28;20028;-59
2024/01/28 05:57:51;;;;;;;9.27;5.47;;;;;;;;;;5052466;28;20127;-59
2024/01/28 06:00:17;;;;;;;10.20;6.32;;;;;;;;;;5052193;28;20175;-57
2024/01/28 06:02:43;;;;;;;9.52;5.63;;;;;;;;;;5051503;28;20036;-59
2024/01/28 06:05:09;;;;;;;10.18;6.32;;;;;;;;;;5052056;28;20045;-59
2024/01/28 06:07:35;;;;;;;9.40;5.57;;;;;;;;;;5052278;28;20516;-59
2024/01/28 06:10:01;;;;;;;9.32;5.53;;;;;;;;;;5052012;28;20032;-59
2024/01/28 06:12:27;;;;;;;9.50;5.60;;;;;;;;;;5051027;28;20017;-59
2024/01/28 06:14:53;;;;;;;10.60;8.38;;;;;;;;;;5051906;28;20087;-59
2024/01/28 06:17:19;;;;;;;9.88;6.00;;;;;;;;;;5050500;28;20112;-58
2024/01/28 06:19:45;;;;;;;9.70;5.72;;;;;;;;;;5051678;28;20060;-58
2024/01/28 06:22:11;;;;;;;9.35;5.55;;;;;;;;;;5050682;28;20368;-59
2024/01/28 06:24:42;;;;;;;9.57;5.65;;;;;;;;;;5051721;28;20076;-58
2024/01/28 06:27:09;;;;;;;9.77;5.78;;;;;;;;;;5051614;28;20021;-58
2024/01/28 06:29:35;;;;;;;9.90;5.80;;;;;;;;;;5051721;28;20013;-58
2024/01/28 06:32:01;;;;;;;9.82;5.78;;;;;;;;;;5051088;28;20139;-58
2024/01/28 06:34:27;;;;;;;10.02;5.93;;;;;;;;;;5051613;28;20025;-58
2024/01/28 06:36:53;;;;;;;9.43;5.55;;;;;;;;;;5051450;28;20028;-57
2024/01/28 06:39:19;;;;;;;9.85;5.82;;;;;;;;;;5051155;28;20052;-59
2024/01/28 06:41:45;;;;;;;9.80;5.80;;;;;;;;;;5050701;28;20024;-58
2024/01/28 06:44:11;;;;;;;10.38;6.15;;;;;;;;;;5051529;28;20442;-58
2024/01/28 06:46:37;;;;;;;9.60;5.70;;;;;;;;;;5051440;28;20104;-58
2024/01/28 06:49:03;;;;;;;9.65;5.70;;;;;;;;;;5049751;28;20039;-58
2024/01/28 06:51:29;;;;;;;9.82;5.90;;;;;;;;;;5050324;28;20025;-58
2024/01/28 06:53:57;;;;;;;9.88;5.80;;;;;;;;;;5050940;28;20029;-59
2024/01/28 06:56:23;;;;;;;10.00;5.90;;;;;;;;;;5051018;28;20499;-59
2024/01/28 06:58:49;;;;;;;10.13;6.00;;;;;;;;;;5050929;28;20044;-57
2024/01/28 07:01:15;;;;;;;10.32;6.05;;;;;;;;;;5050283;28;20454;-57
2024/01/28 07:03:43;;;;;;;10.23;6.05;;;;;;;;;;5049617;28;20096;-57
2024/01/28 07:06:14;;;;;;;10.80;6.30;;;;;;;;;;5050914;28;20128;-59
2024/01/28 07:08:40;;;;;;;10.05;5.95;;;;;;;;;;5050979;28;20029;-58
2024/01/28 07:11:05;;;;;;;10.43;6.20;;;;;;;;;;5050352;28;20025;-57
2024/01/28 07:13:31;;;;;;;10.88;6.38;;;;;;;;;;5050183;28;20104;-58
2024/01/28 07:15:57;;;;;;;10.32;6.10;;;;;;;;;;5049861;28;20028;-58
2024/01/28 07:18:24;;;;;;;10.38;6.07;;;;;;;;;;5051095;28;20029;-59
2024/01/28 07:20:50;;;;;;;10.35;6.10;;;;;;;;;;5050572;28;20037;-56
2024/01/28 07:23:16;;;;;;;9.85;5.82;;;;;;;;;;5050085;28;20086;-58
2024/01/28 07:25:42;;;;;;;11.00;6.68;;;;;;;;;;5049288;28;20029;-60
2024/01/28 07:28:08;;;;;;;10.43;6.20;;;;;;;;;;5050792;28;20021;-60
2024/01/28 07:30:34;;;;;;;10.05;5.90;;;;;;;;;;5050445;28;20040;-59
2024/01/28 07:33:00;;;;;;;10.30;6.10;;;;;;;;;;5049804;28;20033;-60
2024/01/28 07:35:26;;;;;;;10.45;6.10;;;;;;;;;;5050553;28;20116;-59
2024/01/28 07:37:52;;;;;;;10.80;6.30;;;;;;;;;;5050474;28;20029;-58
2024/01/28 07:40:18;;;;;;;10.50;6.20;;;;;;;;;;5050437;28;20576;-59
2024/01/28 07:42:44;;;;;;;10.45;6.15;;;;;;;;;;5049671;28;20100;-60
2024/01/28 07:45:10;;;;;;;10.55;6.20;;;;;;;;;;5050501;28;20055;-60
2024/01/28 07:47:36;;;;;;;10.43;6.15;;;;;;;;;;5049199;28;20049;-59
2024/01/28 07:50:03;;;;;;;10.75;6.30;;;;;;;;;;5050336;28;20033;-58
2024/01/28 07:52:29;;;;;;;10.68;6.28;;;;;;;;;;5048060;28;20521;-59
2024/01/28 07:54:55;;;;;;;10.80;6.30;;;;;;;;;;5049995;28;20025;-59
2024/01/28 07:57:21;;;;;;;10.55;6.20;;;;;;;;;;5048595;28;20380;-59
2024/01/28 07:59:47;;;;;;;10.45;6.18;;;;;;;;;;5049829;28;20671;-59
2024/01/28 08:02:13;;;;;;;10.43;6.15;;;;;;;;;;5049288;28;20029;-58
2024/01/28 08:04:39;;;;;;;10.43;6.13;;;;;;;;;;5049846;28;20017;-58
2024/01/28 08:07:05;;;;;;;10.80;6.35;;;;;;;;;;5049586;28;20028;-58
2024/01/28 08:09:33;;;;;;;10.75;6.30;;;;;;;;;;5049803;28;20029;-59
2024/01/28 08:11:59;;;;;;;13.63;10.02;;;;;;;;;;5048971;28;20025;-60
2024/01/28 08:14:27;;;;;;;10.90;6.40;;;;;;;;;;5048568;28;20169;-56
2024/01/28 08:16:54;;;;;;;10.73;6.32;;;;;;;;;;5047509;28;20032;-57
2024/01/28 08:19:20;;;;;;;11.20;6.57;;;;;;;;;;5049568;28;20359;-59
2024/01/28 08:21:46;;;;;;;11.23;6.60;;;;;;;;;;5048995;28;20096;-62
2024/01/28 08:24:12;;;;;;;11.18;6.60;;;;;;;;;;5049424;28;20108;-59
2024/01/28 08:26:38;;;;;;;10.60;6.30;;;;;;;;;;5047954;28;20029;-59
2024/01/28 08:29:04;;;;;;;11.55;6.75;;;;;;;;;;5049417;28;20139;-57
2024/01/28 08:31:30;;;;;;;10.57;6.22;;;;;;;;;;5048540;28;20033;-59
2024/01/28 08:33:56;;;;;;;10.93;6.40;;;;;;;;;;5049136;28;20021;-59
2024/01/28 08:36:22;;;;;;;11.32;6.60;;;;;;;;;;5047895;28;20036;-58
2024/01/28 08:38:48;;;;;;;10.82;6.35;;;;;;;;;;5049136;28;20017;-58
2024/01/28 08:41:14;;;;;;;10.32;6.13;;;;;;;;;;5048585;28;20085;-58
2024/01/28 08:43:43;;;;;;;10.80;6.30;;;;;;;;;;5048594;28;20032;-58
2024/01/28 08:46:09;;;;;;;11.32;6.63;;;;;;;;;;5049058;28;20103;-57
2024/01/28 08:48:35;;;;;;;11.18;6.57;;;;;;;;;;5048846;28;20593;-56
2024/01/28 08:51:01;;;;;;;11.30;6.60;;;;;;;;;;5048608;28;20033;-59
2024/01/28 08:53:27;;;;;;;11.10;6.55;;;;;;;;;;5046850;28;20033;-56
2024/01/28 08:55:54;;;;;;;11.13;6.53;;;;;;;;;;5049041;28;20402;-55
2024/01/28 08:58:20;;;;;;;11.15;6.50;;;;;;;;;;5049058;28;20506;-58
2024/01/28 09:00:46;;;;;;;11.50;6.70;;;;;;;;;;5048938;28;20048;-53
2024/01/28 09:03:12;;;;;;;11.50;6.70;;;;;;;;;;5048321;28;20467;-57
2024/01/28 09:05:38;;;;;;;11.45;6.72;;;;;;;;;;5046308;28;20035;-55
2024/01/28 09:08:04;;;;;;;11.77;6.88;;;;;;;;;;5062584;28;20029;-54
2024/01/28 09:10:30;;;;;;;11.55;6.80;;;;;;;;;;5048483;28;20505;-55
2024/01/28 09:12:56;;;;;;;11.38;6.63;;;;;;;;;;5047624;28;20025;-55
2024/01/28 09:15:23;;;;;;;11.65;6.82;;;;;;;;;;5048285;28;20027;-50
2024/01/28 09:17:49;;;;;;;11.80;6.90;;;;;;;;;;5048325;28;20021;-53
2024/01/28 09:20:15;;;;;;;11.65;6.85;;;;;;;;;;5048407;28;20021;-56
2024/01/28 09:22:41;;;;;;;11.38;6.68;;;;;;;;;;5047739;28;20059;-50
2024/01/28 09:25:07;;;;;;;11.23;6.60;;;;;;;;;;5048406;28;20483;-56
2024/01/28 09:27:33;;;;;;;11.68;6.80;;;;;;;;;;5050565;28;20025;-57
2024/01/28 09:29:59;;;;;;;11.75;6.88;;;;;;;;;;5052364;28;20490;-56
2024/01/28 09:32:26;;;;;;;11.48;6.75;;;;;;;;;;5051697;28;20036;-55
2024/01/28 09:34:52;;;;;;;11.52;6.72;;;;;;;;;;5052581;28;20013;-53
2024/01/28 09:37:18;;;;;;;11.00;6.47;;;;;;;;;;5052429;28;20086;-56
2024/01/28 09:39:45;;;;;;;11.35;6.68;;;;;;;;;;5052245;28;20075;-57
2024/01/28 09:42:24;;;;;;;11.25;6.65;;;;;;;;;;5050061;28;20025;-54
2024/01/28 09:44:50;;;;;;;11.18;6.57;;;;;;;;;;5052252;28;20095;-57
2024/01/28 09:47:19;;;;;;;11.07;6.50;;;;;;;;;;5051872;28;20123;-59
2024/01/28 09:49:46;;;;;;;11.05;6.50;;;;;;;;;;5052228;28;20021;-57
2024/01/28 09:52:13;;;;;;;11.60;7.22;;;;;;;;;;5051141;28;20085;-58
2024/01/28 09:54:44;;;;;;;11.60;6.80;;;;;;;;;;5050838;28;20021;-58
2024/01/28 09:57:11;;;;;;;11.68;6.78;;;;;;;;;;5052174;28;20479;-59
2024/01/28 09:59:37;;;;;;;11.07;6.50;;;;;;;;;;5051932;28;20025;-56
2024/01/28 10:02:04;;;;;;;11.10;6.55;;;;;;;;;;5051350;28;20025;-55
2024/01/28 10:04:30;;;;;;;11.20;6.60;;;;;;;;;;5051975;28;20033;-58
2024/01/28 10:06:57;;;;;;;11.90;7.47;;;;;;;;;;5051912;28;20048;-57
2024/01/28 10:09:24;;;;;;;11.20;6.60;;;;;;;;;;5052007;28;20033;-59
2024/01/28 10:11:51;;;;;;;11.05;6.47;;;;;;;;;;5049802;28;20025;-58
2024/01/28 10:14:17;;;;;;;11.10;6.50;;;;;;;;;;5051894;28;20024;-57
2024/01/28 10:16:46;;;;;;;11.85;6.90;;;;;;;;;;5051780;28;20451;-58
2024/01/28 10:19:13;;;;;;;11.57;7.05;;;;;;;;;;5051407;28;20039;-51
2024/01/28 10:21:38;;;;;;;11.10;6.55;;;;;;;;;;5048287;28;20070;-51
2024/01/28 10:24:05;;;;;;;11.20;6.60;;;;;;;;;;5047947;28;20094;-55
2024/01/28 10:26:31;;;;;;;11.10;6.50;;;;;;;;;;5051077;28;20043;-52
2024/01/28 10:28:57;;;;;;;10.95;6.40;;;;;;;;;;5050660;28;20036;-55
2024/01/28 10:31:23;;;;;;;11.50;6.70;;;;;;;;;;5049644;28;20041;-58
2024/01/28 10:33:50;;;;;;;11.40;6.70;;;;;;;;;;5050423;28;20422;-57
2024/01/28 10:36:17;;;;;;;10.82;6.40;;;;;;;;;;5050723;28;20024;-55
2024/01/28 10:38:47;;;;;;;10.85;6.35;;;;;;;;;;5049697;28;20051;-56
2024/01/28 10:41:16;;;;;;;10.95;6.47;;;;;;;;;;5050486;28;20032;-53
2024/01/28 10:43:46;;;;;;;11.40;6.63;;;;;;;;;;5051197;28;20526;-55
2024/01/28 10:46:16;;;;;;;11.30;6.60;;;;;;;;;;5050638;28;20037;-59
2024/01/28 10:48:44;;;;;;;10.93;6.43;;;;;;;;;;5047721;28;20550;-56
2024/01/28 10:51:11;;;;;;;10.73;6.28;;;;;;;;;;5049770;28;20431;-56
2024/01/28 10:53:38;;;;;;;10.85;6.35;;;;;;;;;;5049312;28;20064;-57
2024/01/28 10:56:04;;;;;;;10.63;6.28;;;;;;;;;;5050323;28;20105;-57
2024/01/28 10:58:30;;;;;;;10.82;6.35;;;;;;;;;;5050211;28;20459;-55
2024/01/28 11:00:57;;;;;;;9.98;5.85;;;;;;;;;;5049720;28;20045;-59
2024/01/28 11:03:23;;;;;;;11.00;6.40;;;;;;;;;;5050151;28;20163;-58
2024/01/28 11:05:49;;;;;;;9.80;5.78;;;;;;;;;;5050678;28;20025;-56
2024/01/28 11:08:15;;;;;;;10.02;5.90;;;;;;;;;;5049144;28;20025;-58
2024/01/28 11:10:41;;;;;;;10.70;6.30;;;;;;;;;;5050512;28;20100;-58
2024/01/28 11:13:07;;;;;;;11.07;6.50;;;;;;;;;;5050064;28;20215;-56
2024/01/28 11:15:33;;;;;;;12.00;7.00;;;;;;;;;;5050157;28;20069;-57
2024/01/28 11:18:03;;;;;;;12.20;7.13;;;;;;;;;;5050320;28;20021;-54
2024/01/28 11:20:34;;;;;;;12.75;7.40;;;;;;;;;;5050190;28;20401;-54
2024/01/28 11:23:00;;;;;;;13.00;7.70;;;;;;;;;;5049566;28;20359;-56
2024/01/28 11:25:27;;;;;;;13.05;7.70;;;;;;;;;;5049939;28;20524;-53
2024/01/28 11:27:58;;;;;;;13.40;8.10;;;;;;;;;;5050321;28;20127;-58
2024/01/28 11:30:24;;;;;;;13.43;8.38;;;;;;;;;;5050080;28;20044;-55
2024/01/28 11:32:56;;;;;;;13.65;8.77;;;;;;;;;;5049470;28;20479;-55
2024/01/28 11:35:24;;;;;;;13.32;8.30;;;;;;;;;;5050499;28;20468;-55
2024/01/28 11:37:55;;;;;;;13.57;8.60;;;;;;;;;;5050032;28;20048;-58
2024/01/28 11:40:28;;;;;;;13.50;8.52;;;;;;;;;;5050080;28;20063;-59
2024/01/28 11:42:54;;;;;;;13.45;8.55;;;;;;;;;;5049049;28;20077;-56
2024/01/28 11:45:26;;;;;;;13.65;8.80;;;;;;;;;;5049507;28;20040;-57
2024/01/28 11:47:52;;;;;;;13.60;8.73;;;;;;;;;;5049776;28;20396;-56
2024/01/28 11:50:18;;;;;;;13.60;8.80;;;;;;;;;;5048477;28;20084;-59
2024/01/28 11:52:44;;;;;;;13.55;8.57;;;;;;;;;;5047119;28;20060;-54
2024/01/28 11:55:14;;;;;;;13.65;8.88;;;;;;;;;;5049921;28;20155;-58
2024/01/28 11:57:49;;;;;;;13.55;8.65;;;;;;;;;;5049734;28;20017;-58
2024/01/28 12:00:15;;;;;;;13.55;8.68;;;;;;;;;;5049739;28;20035;-58
2024/01/28 12:02:41;;;;;;;13.52;8.50;;;;;;;;;;5048887;28;20037;-56
2024/01/28 12:05:08;;;;;;;13.60;8.70;;;;;;;;;;5049479;28;20071;-55
2024/01/28 12:07:38;;;;;;;13.60;8.65;;;;;;;;;;5049432;28;20056;-57
2024/01/28 12:10:07;;;;;;;13.63;8.77;;;;;;;;;;5047738;28;20032;-57
2024/01/28 12:12:34;;;;;;;14.02;9.45;;;;;;;;;;5049083;28;20398;-57
2024/01/28 12:15:03;;;;;;;13.63;8.93;;;;;;;;;;5049312;28;20049;-55
2024/01/28 12:17:34;;;;;;;13.77;9.20;;;;;;;;;;4698828;28;10000274;-57
2024/01/28 12:20:00;;;;;;;13.80;9.30;;;;;;;;;;5045485;28;20025;-55
2024/01/28 12:22:26;;;;;;;13.77;9.20;;;;;;;;;;5026966;28;20030;-59
2024/01/28 12:24:53;;;;;;;13.90;9.60;;;;;;;;;;5046227;28;20175;-59
2024/01/28 12:27:19;;;;;;;13.93;9.70;;;;;;;;;;5040636;28;20025;-54
2024/01/28 12:29:45;;;;;;;13.70;8.98;;;;;;;;;;5025692;28;20563;-57
2024/01/28 12:32:11;;;;;;;13.70;9.00;;;;;;;;;;5025462;28;20041;-59
2024/01/28 12:34:37;;;;;;;13.70;9.00;;;;;;;;;;5025913;28;20029;-59
2024/01/28 12:37:03;;;;;;;13.95;9.20;;;;;;;;;;5040823;28;20028;-58
2024/01/28 12:39:29;;;;;;;13.70;8.90;;;;;;;;;;5046297;28;20076;-58
2024/01/28 12:41:55;;;;;;;13.70;9.00;;;;;;;;;;5045366;28;20024;-57
2024/01/28 12:44:21;;;;;;;13.70;9.00;;;;;;;;;;5046070;28;20075;-59
2024/01/28 12:46:47;;;;;;;13.73;9.05;;;;;;;;;;5045898;28;20136;-58
2024/01/28 12:49:14;;;;;;;13.70;9.00;;;;;;;;;;5045870;28;20037;-58
2024/01/28 12:51:40;;;;;;;13.57;8.75;;;;;;;;;;5045213;28;20063;-59
2024/01/28 12:54:06;;;;;;;13.70;9.00;;;;;;;;;;5044925;28;20040;-56
2024/01/28 12:56:32;;;;;;;13.80;9.27;;;;;;;;;;5045826;28;20146;-57
2024/01/28 12:58:58;;;;;;;14.27;9.50;;;;;;;;;;5046369;28;20107;-58
2024/01/28 13:01:24;;;;;;;13.80;9.32;;;;;;;;;;5046258;28;20029;-60
2024/01/28 13:03:51;;;;;;;13.73;9.27;;;;;;;;;;5047594;28;20032;-59
2024/01/28 13:06:17;;;;;;;13.80;9.35;;;;;;;;;;5048448;28;20497;-58
2024/01/28 13:08:42;;;;;;;13.85;9.40;;;;;;;;;;5048341;28;20025;-58
2024/01/28 13:11:08;;;;;;;13.82;9.32;;;;;;;;;;5047298;28;20040;-55
2024/01/28 13:13:36;;;;;;;13.90;9.50;;;;;;;;;;4696727;28;10000187;-58
2024/01/28 13:16:02;;;;;;;13.90;9.48;;;;;;;;;;5044923;28;20018;-55
2024/01/28 13:18:28;;;;;;;13.82;9.50;;;;;;;;;;5043789;28;20199;-54
2024/01/28 13:20:54;;;;;;;13.88;9.48;;;;;;;;;;5044945;28;20521;-53
2024/01/28 13:23:20;;;;;;;13.88;9.43;;;;;;;;;;5044755;28;20025;-54
2024/01/28 13:25:46;;;;;;;13.80;9.30;;;;;;;;;;5044866;28;20029;-54
2024/01/28 13:28:12;;;;;;;13.80;9.18;;;;;;;;;;5045041;28;20151;-56
2024/01/28 13:30:38;;;;;;;14.10;9.95;;;;;;;;;;5045277;28;20079;-57
2024/01/28 13:33:04;;;;;;;13.80;9.32;;;;;;;;;;5044716;28;20021;-58
2024/01/28 13:35:32;;;;;;;13.75;9.20;;;;;;;;;;5045146;28;20029;-57
2024/01/28 13:37:59;;;;;;;13.90;9.52;;;;;;;;;;5044802;28;20451;-57
2024/01/28 13:40:25;;;;;;;13.77;9.30;;;;;;;;;;5047729;28;20061;-57
2024/01/28 13:42:51;;;;;;;13.75;9.25;;;;;;;;;;5047188;28;20032;-58
2024/01/28 13:45:17;;;;;;;13.80;9.32;;;;;;;;;;5046631;28;20021;-56
2024/01/28 13:47:44;;;;;;;13.98;9.85;;;;;;;;;;5046511;28;20086;-54
2024/01/28 13:50:10;;;;;;;13.98;9.75;;;;;;;;;;5048064;28;20017;-58
2024/01/28 13:52:36;;;;;;;13.85;9.50;;;;;;;;;;5047568;28;20059;-58
2024/01/28 13:55:02;;;;;;;13.88;9.50;;;;;;;;;;5048233;28;20391;-58
2024/01/28 13:57:28;;;;;;;14.77;10.73;;;;;;;;;;5047970;28;20047;-59
2024/01/28 13:59:54;;;;;;;13.93;9.52;;;;;;;;;;5047824;28;20479;-56
2024/01/28 14:02:20;;;;;;;13.90;9.40;;;;;;;;;;5047332;28;20029;-57
2024/01/28 14:04:46;;;;;;;13.82;9.32;;;;;;;;;;5047839;28;20409;-59
2024/01/28 14:07:12;;;;;;;13.75;9.10;;;;;;;;;;5047976;28;20021;-58
2024/01/28 14:09:38;;;;;;;13.82;9.30;;;;;;;;;;5047873;28;20032;-59
2024/01/28 14:12:05;;;;;;;13.75;9.20;;;;;;;;;;5046910;28;20073;-57
2024/01/28 14:14:30;;;;;;;13.70;9.02;;;;;;;;;;5050605;28;20164;-58
2024/01/28 14:16:56;;;;;;;13.65;9.00;;;;;;;;;;5050146;28;20148;-56
2024/01/28 14:19:22;;;;;;;13.80;9.30;;;;;;;;;;5051383;28;20068;-59
2024/01/28 14:21:48;;;;;;;13.85;9.35;;;;;;;;;;5050586;28;20072;-59
2024/01/28 14:24:14;;;;;;;13.75;9.18;;;;;;;;;;5051947;28;20021;-59
2024/01/28 14:26:40;;;;;;;13.65;8.98;;;;;;;;;;5052547;28;20499;-55
2024/01/28 14:29:06;;;;;;;13.75;9.10;;;;;;;;;;5052891;28;20592;-56
2024/01/28 14:31:32;;;;;;;13.80;9.20;;;;;;;;;;5051721;28;20113;-56